createdAt,value
2023-04-13T00:00:35.564Z,5.27
2023-04-13T00:03:04.267Z,3.90
2023-04-13T00:05:31.324Z,2.63
2023-04-13T00:08:02.690Z,4.87
2023-04-13T00:10:31.360Z,6.83
2023-04-13T00:13:01.485Z,2.77
2023-04-13T00:15:28.070Z,5.53
2023-04-13T00:17:54.554Z,6.57
2023-04-13T00:20:21.235Z,4.63
2023-04-13T00:22:48.367Z,5.13
2023-04-13T00:25:15.820Z,2.57
2023-04-13T00:27:44.075Z,4.50
2023-04-13T00:30:13.028Z,9.30
2023-04-13T00:32:42.369Z,4.37
2023-04-13T00:35:10.525Z,4.67
2023-04-13T00:37:38.606Z,3.80
2023-04-13T00:40:07.894Z,8.17
2023-04-13T00:42:34.555Z,6.50
2023-04-13T00:45:01.054Z,4.30
2023-04-13T00:47:33.999Z,4.87
2023-04-13T00:50:01.907Z,7.20
2023-04-13T00:52:29.078Z,3.03
2023-04-13T00:54:57.820Z,4.80
2023-04-13T00:57:28.547Z,7.43
2023-04-13T00:59:55.883Z,8.40
2023-04-13T01:02:25.722Z,9.90
2023-04-13T01:04:56.180Z,6.60
2023-04-13T01:07:44.928Z,9.00
2023-04-13T01:10:20.794Z,8.73
2023-04-13T01:12:59.261Z,8.13
2023-04-13T01:15:28.492Z,8.33
2023-04-13T01:17:58.333Z,9.57
2023-04-13T01:20:27.640Z,10.03
2023-04-13T01:22:56.432Z,9.63
2023-04-13T01:25:50.689Z,12.20
2023-04-13T01:28:19.296Z,7.50
2023-04-13T01:30:47.469Z,10.33
2023-04-13T01:33:14.999Z,7.33
2023-04-13T01:35:42.201Z,7.43
2023-04-13T01:38:08.778Z,11.20
2023-04-13T01:40:40.864Z,7.63
2023-04-13T01:43:08.498Z,16.63
2023-04-13T01:45:46.124Z,8.13
2023-04-13T01:48:21.401Z,5.57
2023-04-13T01:50:54.572Z,9.10
2023-04-13T01:53:37.346Z,5.07
2023-04-13T01:56:05.918Z,16.20
2023-04-13T01:58:34.641Z,12.97
2023-04-13T02:01:01.091Z,12.77
2023-04-13T02:03:28.707Z,15.10
2023-04-13T02:05:56.604Z,8.87
2023-04-13T02:08:22.991Z,9.93
2023-04-13T02:10:50.125Z,8.97
2023-04-13T02:13:16.656Z,8.83
2023-04-13T02:15:43.182Z,7.77
2023-04-13T02:18:10.581Z,12.80
2023-04-13T02:20:44.093Z,11.70
2023-04-13T02:23:17.805Z,11.23
2023-04-13T02:25:48.062Z,10.83
2023-04-13T02:28:17.692Z,9.97
2023-04-13T02:30:44.739Z,8.13
2023-04-13T02:33:11.143Z,9.03
2023-04-13T02:35:38.998Z,9.37
2023-04-13T02:38:06.756Z,8.53
2023-04-13T02:40:33.333Z,9.43
2023-04-13T02:43:00.098Z,7.40
2023-04-13T02:45:27.141Z,12.33
2023-04-13T02:47:53.652Z,15.87
2023-04-13T02:50:20.200Z,11.47
2023-04-13T02:52:47.136Z,9.70
2023-04-13T02:55:13.639Z,12.20
2023-04-13T02:57:42.317Z,8.07
2023-04-13T03:00:10.481Z,16.17
2023-04-13T03:02:42.212Z,11.53
2023-04-13T03:05:09.321Z,13.00
2023-04-13T03:07:36.396Z,12.93
2023-04-13T03:10:06.744Z,15.97
2023-04-13T03:12:33.339Z,17.93
2023-04-13T03:15:08.437Z,11.80
2023-04-13T03:17:34.877Z,12.90
2023-04-13T03:20:02.061Z,8.43
2023-04-13T03:22:30.394Z,10.23
2023-04-13T03:24:56.900Z,13.63
2023-04-13T03:27:23.455Z,10.67
2023-04-13T03:29:49.876Z,10.43
2023-04-13T03:32:16.518Z,12.37
2023-04-13T03:34:44.206Z,10.77
2023-04-13T03:37:11.673Z,6.97
2023-04-13T03:39:39.263Z,8.48
2023-04-13T03:42:05.949Z,8.90
2023-04-13T03:44:33.046Z,8.17
2023-04-13T03:46:59.992Z,7.37
2023-04-13T03:49:27.127Z,5.93
2023-04-13T03:51:53.613Z,6.47
2023-04-13T03:54:20.146Z,6.90
2023-04-13T03:56:46.692Z,7.17
2023-04-13T03:59:13.064Z,9.37
2023-04-13T04:01:39.579Z,11.80
2023-04-13T04:04:06.668Z,12.10
2023-04-13T04:06:33.168Z,9.53
2023-04-13T04:08:59.565Z,7.67
2023-04-13T04:11:26.095Z,5.80
2023-04-13T04:13:52.531Z,7.87
2023-04-13T04:16:19.076Z,6.80
2023-04-13T04:18:45.721Z,8.27
2023-04-13T04:21:13.142Z,10.30
2023-04-13T04:23:39.985Z,3.77
2023-04-13T04:26:07.364Z,7.93
2023-04-13T04:28:39.861Z,7.33
2023-04-13T04:31:10.598Z,6.40
2023-04-13T04:33:40.670Z,4.63
2023-04-13T04:36:09.874Z,5.70
2023-04-13T04:38:36.847Z,5.70
2023-04-13T04:41:03.309Z,4.93
2023-04-13T04:43:30.413Z,6.63
2023-04-13T04:46:03.059Z,5.07
2023-04-13T04:48:32.016Z,6.77
2023-04-13T04:50:59.892Z,5.93
2023-04-13T04:53:27.126Z,4.13
2023-04-13T04:55:54.217Z,5.80
2023-04-13T04:58:20.695Z,4.33
2023-04-13T05:00:47.899Z,5.90
2023-04-13T05:03:14.421Z,5.20
2023-04-13T05:05:41.174Z,6.43
2023-04-13T05:08:08.221Z,10.63
2023-04-13T05:10:34.879Z,6.00
2023-04-13T05:13:01.373Z,4.67
2023-04-13T05:15:28.234Z,5.43
2023-04-13T05:17:55.039Z,7.80
2023-04-13T05:20:21.574Z,4.30
2023-04-13T05:22:48.011Z,5.97
2023-04-13T05:25:14.590Z,8.83
2023-04-13T05:27:41.069Z,7.37
2023-04-13T05:30:09.447Z,10.80
2023-04-13T05:32:36.299Z,6.27
2023-04-13T05:35:04.389Z,10.83
2023-04-13T05:37:31.198Z,6.67
2023-04-13T05:39:58.431Z,9.40
2023-04-13T05:42:24.933Z,10.40
2023-04-13T05:44:51.385Z,5.30
2023-04-13T05:47:21.509Z,6.50
2023-04-13T05:49:48.012Z,7.73
2023-04-13T05:52:14.688Z,9.73
2023-04-13T05:54:41.481Z,8.53
2023-04-13T05:57:08.039Z,5.43
2023-04-13T05:59:35.607Z,10.27
2023-04-13T06:02:03.122Z,8.83
2023-04-13T06:04:31.201Z,5.57
2023-04-13T06:06:57.994Z,5.90
2023-04-13T06:09:24.425Z,10.10
2023-04-13T06:11:50.900Z,10.27
2023-04-13T06:14:17.722Z,9.13
2023-04-13T06:16:44.284Z,6.10
2023-04-13T06:19:12.367Z,12.57
2023-04-13T06:21:38.810Z,8.03
2023-04-13T06:24:05.633Z,16.20
2023-04-13T06:26:33.603Z,9.93
2023-04-13T06:29:00.443Z,12.97
2023-04-13T06:31:28.002Z,9.63
2023-04-13T06:33:55.378Z,7.40
2023-04-13T06:36:22.033Z,7.63
2023-04-13T06:38:48.511Z,7.80
2023-04-13T06:41:14.940Z,7.13
2023-04-13T06:43:41.409Z,7.43
2023-04-13T06:46:07.910Z,7.40
2023-04-13T06:48:34.477Z,10.70
2023-04-13T06:51:00.966Z,9.13
2023-04-13T06:53:27.383Z,7.10
2023-04-13T06:55:53.949Z,8.63
2023-04-13T06:58:21.939Z,11.63
2023-04-13T07:00:48.465Z,12.17
2023-04-13T07:03:15.193Z,10.77
2023-04-13T07:05:43.198Z,8.97
2023-04-13T07:08:09.629Z,8.90
2023-04-13T07:10:39.259Z,9.80
2023-04-13T07:13:05.965Z,12.07
2023-04-13T07:15:32.798Z,10.43
2023-04-13T07:17:59.298Z,10.40
2023-04-13T07:20:25.871Z,7.43
2023-04-13T07:22:52.439Z,7.97
2023-04-13T07:25:19.004Z,13.33
2023-04-13T07:27:45.416Z,8.47
2023-04-13T07:30:12.151Z,11.80
2023-04-13T07:32:38.617Z,9.87
2023-04-13T07:35:05.686Z,11.80
2023-04-13T07:37:32.102Z,7.00
2023-04-13T07:39:58.549Z,7.17
2023-04-13T07:42:25.171Z,8.80
2023-04-13T07:44:55.341Z,5.80
2023-04-13T07:47:21.963Z,8.00
2023-04-13T07:49:48.428Z,6.97
2023-04-13T07:52:14.907Z,9.27
2023-04-13T07:54:41.317Z,7.38
2023-04-13T07:57:07.818Z,10.50
2023-04-13T07:59:34.282Z,11.00
2023-04-13T08:02:00.815Z,15.10
2023-04-13T08:04:27.653Z,11.35
2023-04-13T08:06:54.213Z,14.47
2023-04-13T08:09:21.147Z,11.90
2023-04-13T08:11:47.640Z,11.57
2023-04-13T08:14:14.100Z,14.37
2023-04-13T08:16:40.661Z,10.20
2023-04-13T08:19:07.414Z,17.67
2023-04-13T08:21:36.243Z,18.40
2023-04-13T08:24:02.766Z,17.63
2023-04-13T08:26:29.449Z,16.13
2023-04-13T08:28:57.506Z,12.82
2023-04-13T08:31:24.254Z,18.37
2023-04-13T08:33:50.947Z,16.30
2023-04-13T08:36:17.748Z,15.87
2023-04-13T08:38:44.183Z,17.60
2023-04-13T08:41:10.903Z,18.00
2023-04-13T08:43:38.302Z,14.25
2023-04-13T08:46:05.948Z,7.50
2023-04-13T08:48:42.757Z,9.57
2023-04-13T08:51:18.111Z,6.63
2023-04-13T08:53:44.720Z,7.88
2023-04-13T08:56:14.781Z,5.78
2023-04-13T08:58:42.931Z,5.10
2023-04-13T09:01:14.031Z,6.07
2023-04-13T09:03:53.853Z,7.27
2023-04-13T09:06:35.675Z,21.80
2023-04-13T09:09:08.482Z,11.18
2023-04-13T09:11:34.890Z,10.57
2023-04-13T09:14:01.589Z,10.90
2023-04-13T09:16:28.482Z,9.30
2023-04-13T09:18:58.463Z,14.98
2023-04-13T09:21:37.482Z,12.07
2023-04-13T09:24:06.002Z,9.57
2023-04-13T09:26:46.649Z,12.00
2023-04-13T09:29:18.207Z,9.52
2023-04-13T09:31:45.988Z,18.02
2023-04-13T09:34:13.677Z,16.45
2023-04-13T09:36:52.874Z,13.45
2023-04-13T09:39:29.351Z,21.05
2023-04-13T09:41:56.569Z,18.40
2023-04-13T09:44:24.465Z,10.65
2023-04-13T09:47:02.221Z,14.38
2023-04-13T09:49:38.906Z,16.73
2023-04-13T09:52:25.742Z,7.95
2023-04-13T09:54:58.692Z,9.73
2023-04-13T09:57:26.045Z,16.15
2023-04-13T09:59:53.509Z,14.70
2023-04-13T10:02:20.172Z,10.80
2023-04-13T10:04:46.805Z,17.27
2023-04-13T10:07:13.341Z,16.23
2023-04-13T10:09:42.243Z,14.55
2023-04-13T10:12:13.707Z,17.20
2023-04-13T10:14:45.686Z,17.60
2023-04-13T10:17:24.632Z,15.25
2023-04-13T10:19:54.280Z,16.63
2023-04-13T10:22:23.746Z,14.98
2023-04-13T10:24:52.821Z,13.50
2023-04-13T10:27:21.798Z,15.43
2023-04-13T10:29:49.855Z,11.10
2023-04-13T10:32:25.213Z,12.55
2023-04-13T10:34:52.896Z,12.80
2023-04-13T10:37:21.887Z,12.80
2023-04-13T10:39:49.159Z,16.30
2023-04-13T10:42:17.898Z,13.00
2023-04-13T10:44:49.958Z,14.02
2023-04-13T10:47:20.521Z,11.90
2023-04-13T10:49:49.055Z,6.72
2023-04-13T10:52:16.527Z,6.97
2023-04-13T10:54:44.347Z,4.97
2023-04-13T10:57:11.882Z,3.10
2023-04-13T10:59:49.154Z,4.40
2023-04-13T11:02:25.973Z,5.28
2023-04-13T11:07:25.440Z,4.75
2023-04-13T11:12:28.754Z,7.65
2023-04-13T11:14:55.347Z,7.27
2023-04-13T11:17:22.019Z,9.65
2023-04-13T11:19:50.604Z,10.48
2023-04-13T11:22:18.987Z,8.35
2023-04-13T11:24:47.586Z,11.37
2023-04-13T11:27:17.152Z,8.93
2023-04-13T11:29:43.549Z,10.40
2023-04-13T11:32:19.642Z,9.80
2023-04-13T11:34:49.244Z,13.68
2023-04-13T11:37:16.105Z,6.47
2023-04-13T11:39:45.519Z,12.75
2023-04-13T11:42:13.088Z,11.00
2023-04-13T11:44:39.555Z,9.20
2023-04-13T11:47:08.680Z,12.48
2023-04-13T11:49:35.479Z,9.82
2023-04-13T11:52:02.784Z,9.07
2023-04-13T11:54:30.554Z,9.63
2023-04-13T11:56:57.559Z,13.63
2023-04-13T11:59:25.287Z,8.25
2023-04-13T12:02:01.535Z,13.40
2023-04-13T12:04:37.396Z,9.65
2023-04-13T12:07:15.386Z,9.40
2023-04-13T12:09:56.088Z,9.23
2023-04-13T12:15:12.686Z,8.20
2023-04-13T12:17:49.718Z,9.77
2023-04-13T12:20:16.918Z,8.38
2023-04-13T12:25:21.028Z,7.30
2023-04-13T12:27:51.673Z,6.97
2023-04-13T12:30:20.826Z,2.17
2023-04-13T12:32:49.011Z,1.90
2023-04-13T12:35:16.211Z,5.55
2023-04-13T12:37:43.362Z,5.55
2023-04-13T12:40:12.231Z,10.88
2023-04-13T12:42:43.648Z,9.07
2023-04-13T12:45:10.720Z,5.47
2023-04-13T12:47:37.802Z,6.60
2023-04-13T12:50:06.214Z,3.42
2023-04-13T12:52:32.694Z,2.67
2023-04-13T12:57:35.130Z,5.88
2023-04-13T13:00:01.714Z,6.28
2023-04-13T13:02:33.477Z,5.72
2023-04-13T13:05:00.271Z,4.70
2023-04-13T13:07:27.219Z,5.43
2023-04-13T13:09:53.788Z,9.55
2023-04-13T13:12:20.268Z,5.63
2023-04-13T13:14:46.795Z,5.18
2023-04-13T13:17:13.278Z,6.30
2023-04-13T13:19:39.730Z,5.28
2023-04-13T13:22:06.270Z,6.82
2023-04-13T13:24:32.916Z,7.95
2023-04-13T13:29:33.438Z,4.15
2023-04-13T13:32:00.471Z,6.85
2023-04-13T13:34:27.184Z,10.90
2023-04-13T13:36:54.114Z,13.10
2023-04-13T13:39:24.133Z,5.88
2023-04-13T13:41:50.933Z,8.90
2023-04-13T13:44:17.688Z,8.45
2023-04-13T13:46:44.209Z,7.55
2023-04-13T13:49:11.839Z,9.43
2023-04-13T13:51:38.454Z,10.35
2023-04-13T13:54:05.467Z,10.40
2023-04-13T13:56:31.942Z,8.88
2023-04-13T13:58:59.403Z,9.77
2023-04-13T14:01:26.214Z,6.93
2023-04-13T14:03:52.964Z,5.47
2023-04-13T14:06:20.705Z,6.38
2023-04-13T14:08:47.178Z,8.43
2023-04-13T14:11:13.733Z,4.35
2023-04-13T14:13:40.284Z,5.25
2023-04-13T14:16:07.423Z,6.43
2023-04-13T14:18:34.011Z,2.83
2023-04-13T14:21:00.598Z,4.45
2023-04-13T14:23:27.182Z,3.58
2023-04-13T14:25:54.903Z,4.32
2023-04-13T14:28:21.485Z,3.72
2023-04-13T14:30:48.190Z,7.13
2023-04-13T14:33:14.775Z,6.88
2023-04-13T14:35:41.545Z,8.52
2023-04-13T14:38:11.482Z,6.63
2023-04-13T14:40:38.131Z,5.78
2023-04-13T14:43:04.806Z,8.27
2023-04-13T14:45:32.321Z,5.72
2023-04-13T14:47:58.960Z,2.13
2023-04-13T14:50:25.769Z,4.03
2023-04-13T14:52:52.497Z,4.22
2023-04-13T14:55:20.573Z,2.50
2023-04-13T14:57:47.322Z,6.18
2023-04-13T15:00:39.317Z,7.55
2023-04-13T15:03:10.660Z,4.28
2023-04-13T15:05:48.384Z,6.13
2023-04-13T15:08:16.782Z,5.28
2023-04-13T15:10:44.386Z,10.55
2023-04-13T15:13:11.695Z,11.13
2023-04-13T15:15:38.489Z,8.70
2023-04-13T15:18:06.339Z,7.82
2023-04-13T15:20:33.300Z,7.22
2023-04-13T15:23:00.029Z,11.15
2023-04-13T15:25:27.022Z,8.43
2023-04-13T15:27:56.244Z,8.30
2023-04-13T15:30:27.642Z,7.30
2023-04-13T15:32:59.934Z,7.35
2023-04-13T15:35:27.276Z,6.90
2023-04-13T15:37:54.041Z,11.50
2023-04-13T15:40:22.434Z,7.65
2023-04-13T15:42:49.307Z,6.55
2023-04-13T15:45:17.172Z,8.98
2023-04-13T15:47:43.798Z,7.80
2023-04-13T15:50:10.887Z,11.85
2023-04-13T15:52:40.390Z,10.18
2023-04-13T15:55:08.294Z,14.00
2023-04-13T15:57:36.058Z,7.50
2023-04-13T16:00:04.904Z,7.38
2023-04-13T16:02:32.245Z,6.82
2023-04-13T16:04:59.031Z,9.05
2023-04-13T16:07:26.119Z,6.53
2023-04-13T16:09:58.785Z,7.00
2023-04-13T16:12:31.789Z,5.00
2023-04-13T16:15:03.430Z,5.35
2023-04-13T16:17:32.487Z,7.05
2023-04-13T16:20:18.628Z,8.88
2023-04-13T16:22:52.921Z,7.32
2023-04-13T16:25:20.292Z,7.28
2023-04-13T16:27:50.859Z,6.65
2023-04-13T16:30:20.128Z,7.13
2023-04-13T16:32:47.324Z,7.80
2023-04-13T16:35:14.184Z,10.30
2023-04-13T16:37:42.314Z,6.97
2023-04-13T16:40:13.549Z,9.32
2023-04-13T16:42:41.902Z,6.88
2023-04-13T16:45:12.263Z,9.00
2023-04-13T16:47:42.255Z,6.65
2023-04-13T16:50:10.773Z,7.93
2023-04-13T16:52:38.831Z,7.13
2023-04-13T16:55:06.284Z,5.38
2023-04-13T16:57:34.060Z,8.98
2023-04-13T17:00:06.507Z,6.93
2023-04-13T17:02:34.375Z,7.70
2023-04-13T17:05:01.208Z,8.80
2023-04-13T17:07:28.293Z,7.35
2023-04-13T17:09:57.090Z,6.68
2023-04-13T17:12:25.185Z,7.65
2023-04-13T17:14:52.084Z,5.70
2023-04-13T17:17:19.804Z,6.18
2023-04-13T17:19:46.304Z,7.50
2023-04-13T17:22:13.517Z,8.40
2023-04-13T17:24:40.249Z,5.20
2023-04-13T17:27:07.179Z,5.50
2023-04-13T17:29:37.762Z,7.40
2023-04-13T17:32:05.140Z,14.35
2023-04-13T17:34:31.812Z,14.70
2023-04-13T17:36:59.098Z,9.45
2023-04-13T17:39:25.614Z,6.85
2023-04-13T17:41:52.161Z,7.88
2023-04-13T17:44:18.724Z,6.78
2023-04-13T17:46:45.782Z,6.45
2023-04-13T17:49:12.958Z,6.47
2023-04-13T17:51:39.491Z,5.70
2023-04-13T17:54:08.314Z,8.48
2023-04-13T17:56:34.778Z,5.93
2023-04-13T17:59:02.548Z,6.82
2023-04-13T18:01:29.186Z,11.85
2023-04-13T18:03:56.278Z,7.53
2023-04-13T18:06:22.797Z,8.15
2023-04-13T18:08:49.342Z,8.13
2023-04-13T18:11:16.005Z,6.47
2023-04-13T18:13:42.567Z,5.13
2023-04-13T18:16:11.680Z,6.93
2023-04-13T18:18:39.948Z,3.53
2023-04-13T18:21:06.649Z,7.47
2023-04-13T18:23:33.519Z,4.38
2023-04-13T18:26:01.808Z,7.65
2023-04-13T18:28:29.762Z,7.32
2023-04-13T18:31:00.759Z,2.97
2023-04-13T18:33:27.888Z,6.28
2023-04-13T18:35:54.714Z,4.53
2023-04-13T18:38:22.239Z,6.97
2023-04-13T18:40:50.650Z,6.05
2023-04-13T18:43:18.497Z,7.35
2023-04-13T18:45:46.548Z,5.78
2023-04-13T18:48:13.081Z,6.40
2023-04-13T18:50:40.277Z,4.38
2023-04-13T18:53:06.742Z,5.68
2023-04-13T18:55:33.650Z,4.20
2023-04-13T18:58:00.441Z,11.90
2023-04-13T19:00:26.895Z,6.63
2023-04-13T19:02:53.652Z,5.25
2023-04-13T19:05:20.556Z,3.80
2023-04-13T19:07:58.524Z,5.13
2023-04-13T19:10:27.046Z,7.20
2023-04-13T19:12:54.125Z,4.25
2023-04-13T19:15:22.671Z,4.88
2023-04-13T19:17:52.852Z,4.72
2023-04-13T19:20:23.874Z,6.63
2023-04-13T19:22:55.198Z,14.18
2023-04-13T19:25:21.752Z,4.22
2023-04-13T19:27:50.692Z,5.68
2023-04-13T19:30:19.450Z,3.90
2023-04-13T19:32:47.968Z,4.32
2023-04-13T19:35:14.849Z,3.17
2023-04-13T19:37:42.117Z,2.15
2023-04-13T19:40:10.058Z,2.22
2023-04-13T19:42:37.485Z,2.78
2023-04-13T19:45:04.538Z,3.15
2023-04-13T19:47:31.115Z,4.47
2023-04-13T19:49:57.646Z,5.13
2023-04-13T19:52:25.390Z,3.95
2023-04-13T19:54:52.133Z,11.02
2023-04-13T19:57:18.861Z,5.47
2023-04-13T19:59:47.014Z,9.65
2023-04-13T20:02:13.792Z,8.60
2023-04-13T20:04:40.821Z,7.28
2023-04-13T20:07:07.883Z,7.32
2023-04-13T20:09:35.634Z,5.57
2023-04-13T20:12:02.097Z,7.82
2023-04-13T20:14:28.889Z,10.47
2023-04-13T20:16:55.644Z,8.68
2023-04-13T20:19:26.105Z,7.93
2023-04-13T20:21:54.510Z,7.25
2023-04-13T20:24:21.310Z,5.32
2023-04-13T20:26:49.229Z,5.88
2023-04-13T20:29:19.309Z,12.52
2023-04-13T20:31:47.061Z,8.38
2023-04-13T20:34:13.677Z,4.32
2023-04-13T20:36:40.700Z,6.60
2023-04-13T20:39:09.690Z,8.38
2023-04-13T20:41:36.783Z,7.10
2023-04-13T20:44:03.980Z,9.85
2023-04-13T20:46:35.155Z,10.80
2023-04-13T20:49:08.148Z,7.53
2023-04-13T20:51:34.703Z,9.67
2023-04-13T20:54:02.783Z,6.77
2023-04-13T20:56:29.981Z,8.02
2023-04-13T20:58:58.286Z,5.43
2023-04-13T21:01:25.357Z,4.63
2023-04-13T21:03:53.038Z,9.93
2023-04-13T21:06:19.939Z,5.28
2023-04-13T21:08:48.486Z,5.50
2023-04-13T21:11:16.300Z,6.37
2023-04-13T21:13:43.022Z,6.30
2023-04-13T21:16:11.407Z,6.17
2023-04-13T21:18:38.055Z,6.57
2023-04-13T21:21:08.611Z,8.07
2023-04-13T21:23:36.575Z,8.27
2023-04-13T21:26:04.126Z,10.57
2023-04-13T21:28:30.813Z,7.23
2023-04-13T21:30:57.308Z,6.70
2023-04-13T21:33:23.813Z,6.73
2023-04-13T21:35:50.502Z,5.97
2023-04-13T21:38:17.011Z,8.57
2023-04-13T21:40:43.764Z,9.30
2023-04-13T21:43:10.288Z,7.67
2023-04-13T21:45:37.120Z,7.93
2023-04-13T21:48:03.869Z,10.40
2023-04-13T21:50:30.534Z,7.33
2023-04-13T21:52:57.090Z,8.37
2023-04-13T21:55:23.781Z,6.60
2023-04-13T21:57:50.635Z,5.70
2023-04-13T22:00:18.053Z,6.97
2023-04-13T22:02:44.947Z,6.57
2023-04-13T22:05:11.985Z,10.40
2023-04-13T22:07:43.365Z,11.30
2023-04-13T22:10:11.571Z,9.10
2023-04-13T22:12:38.492Z,11.53
2023-04-13T22:15:06.662Z,10.67
2023-04-13T22:17:34.705Z,7.87
2023-04-13T22:20:01.261Z,5.60
2023-04-13T22:22:27.822Z,3.83
2023-04-13T22:24:54.573Z,6.40
2023-04-13T22:27:21.914Z,5.13
2023-04-13T22:29:48.490Z,8.57
2023-04-13T22:32:15.274Z,5.63
2023-04-13T22:34:41.972Z,7.33
2023-04-13T22:37:10.574Z,6.67
2023-04-13T22:39:37.430Z,10.13
2023-04-13T22:42:04.182Z,5.83
2023-04-13T22:44:34.802Z,7.50
2023-04-13T22:47:02.862Z,9.83
2023-04-13T22:49:29.864Z,7.97
2023-04-13T22:51:57.564Z,5.80
2023-04-13T22:54:24.309Z,6.93
2023-04-13T22:56:51.362Z,8.50
2023-04-13T22:59:18.036Z,10.27
2023-04-13T23:01:44.718Z,5.70
2023-04-13T23:04:15.067Z,6.67
2023-04-13T23:06:43.021Z,8.37
2023-04-13T23:09:09.533Z,5.60
2023-04-13T23:11:36.433Z,7.60
2023-04-13T23:14:03.093Z,5.43
2023-04-13T23:16:29.686Z,7.67
2023-04-13T23:18:56.613Z,8.03
2023-04-13T23:21:23.153Z,6.23
2023-04-13T23:23:49.784Z,8.77
2023-04-13T23:26:16.461Z,5.87
2023-04-13T23:28:43.075Z,8.27
2023-04-13T23:31:09.704Z,5.17
2023-04-13T23:33:36.738Z,7.47
2023-04-13T23:36:04.741Z,7.17
2023-04-13T23:38:32.489Z,6.87
2023-04-13T23:41:03.168Z,6.40
2023-04-13T23:43:29.671Z,8.70
2023-04-13T23:45:57.177Z,5.40
2023-04-13T23:48:24.642Z,9.53
2023-04-13T23:50:51.975Z,7.23
2023-04-13T23:53:19.868Z,7.93
2023-04-13T23:55:47.045Z,5.47
2023-04-13T23:58:13.803Z,7.30
